createdAt,value
2023-04-30T00:02:49.960Z,12.71
2023-04-30T00:05:53.320Z,12.50
2023-04-30T00:08:56.652Z,12.89
2023-04-30T00:11:58.712Z,12.75
2023-04-30T00:15:01.714Z,12.35
2023-04-30T00:18:03.900Z,12.20
2023-04-30T00:21:06.093Z,12.43
2023-04-30T00:24:09.507Z,12.13
2023-04-30T00:27:11.405Z,12.20
2023-04-30T00:30:13.377Z,12.26
2023-04-30T00:33:15.360Z,11.91
2023-04-30T00:36:17.330Z,12.21
2023-04-30T00:39:20.611Z,11.96
2023-04-30T00:42:22.590Z,11.62
2023-04-30T00:45:24.623Z,11.56
2023-04-30T00:48:29.497Z,11.47
2023-04-30T00:51:32.710Z,11.50
2023-04-30T00:54:36.455Z,11.79
2023-04-30T00:57:39.197Z,11.61
2023-04-30T01:00:47.190Z,11.49
2023-04-30T01:03:49.523Z,11.51
2023-04-30T01:06:52.195Z,11.81
2023-04-30T01:09:56.274Z,11.64
2023-04-30T01:13:08.662Z,12.08
2023-04-30T01:16:18.167Z,11.91
2023-04-30T01:19:35.516Z,11.93
2023-04-30T01:22:47.313Z,11.67
2023-04-30T01:26:04.009Z,11.59
2023-04-30T01:29:08.575Z,12.00
2023-04-30T01:32:11.139Z,11.56
2023-04-30T01:35:13.066Z,11.49
2023-04-30T01:38:26.284Z,11.20
2023-04-30T01:41:34.638Z,11.28
2023-04-30T01:44:49.947Z,11.15
2023-04-30T01:48:03.822Z,11.17
2023-04-30T01:51:09.998Z,11.13
2023-04-30T01:54:19.459Z,11.11
2023-04-30T01:57:37.392Z,11.15
2023-04-30T02:00:41.198Z,11.31
2023-04-30T02:03:43.248Z,11.27
2023-04-30T02:06:45.442Z,11.55
2023-04-30T02:09:47.495Z,11.41
2023-04-30T02:12:49.549Z,11.49
2023-04-30T02:15:56.652Z,11.24
2023-04-30T02:18:58.607Z,11.34
2023-04-30T02:22:00.845Z,11.23
2023-04-30T02:25:03.374Z,11.06
2023-04-30T02:28:05.468Z,11.08
2023-04-30T02:31:08.964Z,11.01
2023-04-30T02:34:11.003Z,10.97
2023-04-30T02:37:13.006Z,10.77
2023-04-30T02:40:15.262Z,11.18
2023-04-30T02:43:17.312Z,11.19
2023-04-30T02:46:20.776Z,10.83
2023-04-30T02:49:22.818Z,11.34
2023-04-30T02:52:25.953Z,11.85
2023-04-30T02:55:28.350Z,12.21
2023-04-30T02:58:30.309Z,12.12
2023-04-30T03:01:33.827Z,12.13
2023-04-30T03:04:35.721Z,11.90
2023-04-30T03:07:37.649Z,12.01
2023-04-30T03:10:39.558Z,11.88
2023-04-30T03:13:41.650Z,11.91
2023-04-30T03:16:45.007Z,12.27
2023-04-30T03:19:46.985Z,12.83
2023-04-30T03:22:48.961Z,13.08
2023-04-30T03:25:51.563Z,13.01
2023-04-30T03:28:56.038Z,13.24
2023-04-30T03:31:59.440Z,13.47
2023-04-30T03:35:01.414Z,13.49
2023-04-30T03:38:03.441Z,13.35
2023-04-30T03:41:05.824Z,13.35
2023-04-30T03:44:15.062Z,13.56
2023-04-30T03:47:18.495Z,13.21
2023-04-30T03:50:20.745Z,13.60
2023-04-30T03:53:22.768Z,13.23
2023-04-30T03:56:26.364Z,13.19
2023-04-30T03:59:28.321Z,13.22
2023-04-30T04:02:32.697Z,13.24
2023-04-30T04:05:34.686Z,13.05
2023-04-30T04:08:37.585Z,13.05
2023-04-30T04:11:39.439Z,12.93
2023-04-30T04:14:41.540Z,13.08
2023-04-30T04:17:44.917Z,12.94
2023-04-30T04:20:47.084Z,13.12
2023-04-30T04:23:49.021Z,12.87
2023-04-30T04:26:51.519Z,12.91
2023-04-30T04:29:55.367Z,13.13
2023-04-30T04:32:58.879Z,13.06
2023-04-30T04:36:02.700Z,12.86
2023-04-30T04:39:04.663Z,13.01
2023-04-30T04:42:06.602Z,12.85
2023-04-30T04:45:09.997Z,12.87
2023-04-30T04:48:13.336Z,12.88
2023-04-30T04:51:15.794Z,12.90
2023-04-30T04:54:17.740Z,12.95
2023-04-30T04:57:19.720Z,12.92
2023-04-30T05:00:23.584Z,12.91
2023-04-30T05:03:27.345Z,12.86
2023-04-30T05:06:32.452Z,12.83
2023-04-30T05:09:36.336Z,13.20
2023-04-30T05:12:39.977Z,13.24
2023-04-30T05:15:41.906Z,13.32
2023-04-30T05:18:45.210Z,13.58
2023-04-30T05:21:47.268Z,13.82
2023-04-30T05:24:49.399Z,13.63
2023-04-30T05:27:51.469Z,13.76
2023-04-30T05:30:53.408Z,13.68
2023-04-30T05:33:56.785Z,13.83
2023-04-30T05:36:58.625Z,13.92
2023-04-30T05:40:00.749Z,13.88
2023-04-30T05:43:02.745Z,13.91
2023-04-30T05:46:04.733Z,13.98
2023-04-30T05:49:08.157Z,14.04
2023-04-30T05:52:10.220Z,14.18
2023-04-30T05:55:12.392Z,14.52
2023-04-30T05:58:14.521Z,14.44
2023-04-30T06:01:16.408Z,14.42
2023-04-30T06:04:19.980Z,14.54
2023-04-30T06:07:21.884Z,14.78
2023-04-30T06:10:24.041Z,14.54
2023-04-30T06:13:26.382Z,14.62
2023-04-30T06:16:29.343Z,14.69
2023-04-30T06:19:32.787Z,14.77
2023-04-30T06:22:34.819Z,15.09
2023-04-30T06:25:36.916Z,15.43
2023-04-30T06:28:38.837Z,15.43
2023-04-30T06:31:40.861Z,15.43
2023-04-30T06:34:46.502Z,15.78
2023-04-30T06:37:48.507Z,15.77
2023-04-30T06:40:50.705Z,15.66
2023-04-30T06:43:52.689Z,15.89
2023-04-30T06:46:54.941Z,15.85
2023-04-30T06:49:58.508Z,16.29
2023-04-30T06:53:01.857Z,16.23
2023-04-30T06:56:04.366Z,16.09
2023-04-30T06:59:06.273Z,16.01
2023-04-30T07:02:08.314Z,16.03
2023-04-30T07:05:12.305Z,16.25
2023-04-30T07:08:15.260Z,16.36
2023-04-30T07:11:17.198Z,16.41
2023-04-30T07:14:19.161Z,16.35
2023-04-30T07:17:21.233Z,16.57
2023-04-30T07:20:24.744Z,16.35
2023-04-30T07:23:28.348Z,16.45
2023-04-30T07:26:31.079Z,16.85
2023-04-30T07:29:33.065Z,16.56
2023-04-30T07:32:35.347Z,16.94
2023-04-30T07:35:38.808Z,17.25
2023-04-30T07:38:40.699Z,17.01
2023-04-30T07:41:42.652Z,17.10
2023-04-30T07:44:44.820Z,16.80
2023-04-30T07:47:47.800Z,16.97
2023-04-30T07:50:52.872Z,17.07
2023-04-30T07:53:54.931Z,17.36
2023-04-30T07:56:56.910Z,17.17
2023-04-30T08:00:01.518Z,17.12
2023-04-30T08:03:03.633Z,17.04
2023-04-30T08:06:08.065Z,16.68
2023-04-30T08:09:09.998Z,16.25
2023-04-30T08:12:11.941Z,16.68
2023-04-30T08:15:13.942Z,16.63
2023-04-30T08:18:16.410Z,16.96
2023-04-30T08:21:19.896Z,17.11
2023-04-30T08:24:21.861Z,17.08
2023-04-30T08:27:23.792Z,16.95
2023-04-30T08:30:26.038Z,17.15
2023-04-30T08:33:28.006Z,17.90
2023-04-30T08:36:31.678Z,18.25
2023-04-30T08:39:34.441Z,18.23
2023-04-30T08:42:37.731Z,18.58
2023-04-30T08:45:39.833Z,18.62
2023-04-30T08:48:42.051Z,18.86
2023-04-30T08:51:46.799Z,18.91
2023-04-30T08:54:52.717Z,19.29
2023-04-30T08:57:54.752Z,18.85
2023-04-30T09:00:58.318Z,18.81
2023-04-30T09:04:00.982Z,18.34
2023-04-30T09:07:06.273Z,17.53
2023-04-30T09:10:18.803Z,17.09
2023-04-30T09:13:20.946Z,17.21
2023-04-30T09:16:23.894Z,17.74
2023-04-30T09:19:27.652Z,18.26
2023-04-30T09:22:31.113Z,18.63
2023-04-30T09:25:39.622Z,18.56
2023-04-30T09:28:54.990Z,17.70
2023-04-30T09:32:08.697Z,17.51
2023-04-30T09:35:29.733Z,17.39
2023-04-30T09:38:33.265Z,17.88
2023-04-30T09:41:35.567Z,17.46
2023-04-30T09:44:39.190Z,18.18
2023-04-30T09:47:41.438Z,17.84
2023-04-30T09:50:45.076Z,18.24
2023-04-30T09:53:49.277Z,17.85
2023-04-30T09:56:53.809Z,19.05
2023-04-30T09:59:58.446Z,18.60
2023-04-30T10:03:04.947Z,18.84
2023-04-30T10:06:08.001Z,18.43
2023-04-30T10:09:14.776Z,18.01
2023-04-30T10:12:22.487Z,18.45
2023-04-30T10:15:26.692Z,17.98
2023-04-30T10:18:31.556Z,18.14
2023-04-30T10:21:34.539Z,17.90
2023-04-30T10:24:38.490Z,18.40
2023-04-30T10:27:40.509Z,18.69
2023-04-30T10:30:43.746Z,18.70
2023-04-30T10:33:55.485Z,18.78
2023-04-30T10:37:00.943Z,19.10
2023-04-30T10:40:05.966Z,18.55
2023-04-30T10:43:07.945Z,18.25
2023-04-30T10:46:10.018Z,18.52
2023-04-30T10:49:12.470Z,18.55
2023-04-30T10:52:14.451Z,18.60
2023-04-30T10:55:18.539Z,18.70
2023-04-30T10:58:30.092Z,19.02
2023-04-30T11:01:32.728Z,18.72
2023-04-30T11:04:54.757Z,18.33
2023-04-30T11:07:58.951Z,18.39
2023-04-30T11:11:01.821Z,18.50
2023-04-30T11:14:03.907Z,18.09
2023-04-30T11:17:06.083Z,18.61
2023-04-30T11:20:12.820Z,18.52
2023-04-30T11:23:25.011Z,18.13
2023-04-30T11:27:05.672Z,18.62
2023-04-30T11:30:12.725Z,18.16
2023-04-30T11:33:14.782Z,18.64
2023-04-30T11:36:17.313Z,18.47
2023-04-30T11:39:21.015Z,18.14
2023-04-30T11:42:23.044Z,18.64
2023-04-30T11:45:25.560Z,18.74
2023-04-30T11:48:31.585Z,18.75
2023-04-30T11:51:37.012Z,19.59
2023-04-30T11:54:40.415Z,19.44
2023-04-30T11:57:43.260Z,19.62
2023-04-30T12:00:45.228Z,19.93
2023-04-30T12:03:49.159Z,19.79
2023-04-30T12:06:51.770Z,19.59
2023-04-30T12:09:56.517Z,19.70
2023-04-30T12:12:58.786Z,20.02
2023-04-30T12:16:03.259Z,19.52
2023-04-30T12:19:05.556Z,18.85
2023-04-30T12:22:07.625Z,19.49
2023-04-30T12:25:14.029Z,19.01
2023-04-30T12:28:16.101Z,18.92
2023-04-30T12:31:18.286Z,19.84
2023-04-30T12:34:20.374Z,19.57
2023-04-30T12:37:22.325Z,19.65
2023-04-30T12:40:27.734Z,19.53
2023-04-30T12:43:30.176Z,19.84
2023-04-30T12:46:32.434Z,20.17
2023-04-30T12:49:35.078Z,19.91
2023-04-30T12:52:37.428Z,19.82
2023-04-30T12:55:40.781Z,19.82
2023-04-30T12:58:45.698Z,20.04
2023-04-30T13:01:47.764Z,19.22
2023-04-30T13:04:50.117Z,18.93
2023-04-30T13:07:55.848Z,19.63
2023-04-30T13:10:59.191Z,20.61
2023-04-30T13:14:01.226Z,20.10
2023-04-30T13:17:05.930Z,20.26
2023-04-30T13:20:09.495Z,20.69
2023-04-30T13:23:14.701Z,21.26
2023-04-30T13:26:18.076Z,20.79
2023-04-30T13:29:21.154Z,20.22
2023-04-30T13:32:23.187Z,19.84
2023-04-30T13:35:28.163Z,19.65
2023-04-30T13:38:30.584Z,19.85
2023-04-30T13:41:33.955Z,20.15
2023-04-30T13:44:36.006Z,19.33
2023-04-30T13:47:38.962Z,20.29
2023-04-30T13:50:41.013Z,20.25
2023-04-30T13:53:43.373Z,20.80
2023-04-30T13:56:47.006Z,21.07
2023-04-30T13:59:49.307Z,21.26
2023-04-30T14:02:51.573Z,20.92
2023-04-30T14:05:54.863Z,20.29
2023-04-30T14:08:56.997Z,19.93
2023-04-30T14:12:00.355Z,19.70
2023-04-30T14:15:02.385Z,19.73
2023-04-30T14:18:04.593Z,19.31
2023-04-30T14:21:06.761Z,19.12
2023-04-30T14:24:15.582Z,19.55
2023-04-30T14:27:19.139Z,19.84
2023-04-30T14:30:24.091Z,20.08
2023-04-30T14:33:29.022Z,20.37
2023-04-30T14:36:34.513Z,20.74
2023-04-30T14:39:36.395Z,20.42
2023-04-30T14:42:42.450Z,20.26
2023-04-30T14:45:45.959Z,20.02
2023-04-30T14:48:50.685Z,19.55
2023-04-30T14:51:52.791Z,19.34
2023-04-30T14:54:54.841Z,19.27
2023-04-30T14:57:59.002Z,19.26
2023-04-30T15:01:01.040Z,19.29
2023-04-30T15:04:03.591Z,19.15
2023-04-30T15:07:05.870Z,18.86
2023-04-30T15:10:11.373Z,18.45
2023-04-30T15:13:15.173Z,17.96
2023-04-30T15:16:17.382Z,17.43
2023-04-30T15:19:19.385Z,17.90
2023-04-30T15:22:21.466Z,17.33
2023-04-30T15:25:26.620Z,17.44
2023-04-30T15:28:29.961Z,17.43
2023-04-30T15:31:32.959Z,16.95
2023-04-30T15:34:34.963Z,16.71
2023-04-30T15:37:36.969Z,16.37
2023-04-30T15:40:38.939Z,16.21
2023-04-30T15:43:42.610Z,16.11
2023-04-30T15:46:44.727Z,16.08
2023-04-30T15:49:48.323Z,15.82
2023-04-30T15:52:50.267Z,15.59
2023-04-30T15:55:52.358Z,15.84
2023-04-30T15:58:58.428Z,15.31
2023-04-30T16:02:00.447Z,15.27
2023-04-30T16:05:04.531Z,15.23
2023-04-30T16:08:08.169Z,14.94
2023-04-30T16:11:10.877Z,14.94
2023-04-30T16:14:14.228Z,15.10
2023-04-30T16:17:16.449Z,14.86
2023-04-30T16:20:22.234Z,14.86
2023-04-30T16:23:24.506Z,15.15
2023-04-30T16:26:26.475Z,15.30
2023-04-30T16:29:29.978Z,15.26
2023-04-30T16:32:32.339Z,15.41
2023-04-30T16:35:34.500Z,14.97
2023-04-30T16:38:37.164Z,14.65
2023-04-30T16:41:39.162Z,14.53
2023-04-30T16:44:42.451Z,14.41
2023-04-30T16:47:45.303Z,14.54
2023-04-30T16:50:47.679Z,14.65
2023-04-30T16:53:49.882Z,14.58
2023-04-30T16:56:51.941Z,14.07
2023-04-30T16:59:55.782Z,14.07
2023-04-30T17:02:58.105Z,14.29
2023-04-30T17:06:00.288Z,14.04
2023-04-30T17:09:02.242Z,14.18
2023-04-30T17:12:05.664Z,13.95
2023-04-30T17:15:09.841Z,14.28
2023-04-30T17:18:14.667Z,14.31
2023-04-30T17:21:17.384Z,14.36
2023-04-30T17:24:20.227Z,14.22
2023-04-30T17:27:22.837Z,14.42
2023-04-30T17:30:27.248Z,14.21
2023-04-30T17:33:30.248Z,13.94
2023-04-30T17:36:32.588Z,13.70
2023-04-30T17:39:35.864Z,13.76
2023-04-30T17:42:39.373Z,13.57
2023-04-30T17:45:44.268Z,13.54
2023-04-30T17:48:47.278Z,13.35
2023-04-30T17:51:49.434Z,13.57
2023-04-30T17:54:52.013Z,13.60
2023-04-30T17:57:55.321Z,13.41
2023-04-30T18:01:02.166Z,13.29
2023-04-30T18:04:08.371Z,13.44
2023-04-30T18:07:11.587Z,13.62
2023-04-30T18:10:14.040Z,13.20
2023-04-30T18:13:16.556Z,13.26
2023-04-30T18:16:20.260Z,13.35
2023-04-30T18:19:23.003Z,13.46
2023-04-30T18:22:25.692Z,13.64
2023-04-30T18:25:27.948Z,13.22
2023-04-30T18:28:30.230Z,13.11
2023-04-30T18:31:34.025Z,12.95
2023-04-30T18:34:36.183Z,13.01
2023-04-30T18:37:38.159Z,12.70
2023-04-30T18:40:40.424Z,12.78
2023-04-30T18:43:43.511Z,12.93
2023-04-30T18:46:47.680Z,13.28
2023-04-30T18:49:49.605Z,13.24
2023-04-30T18:52:51.990Z,13.21
2023-04-30T18:55:54.121Z,13.11
2023-04-30T18:58:56.616Z,12.68
2023-04-30T19:02:00.478Z,12.46
2023-04-30T19:05:02.697Z,12.72
2023-04-30T19:08:05.015Z,12.65
2023-04-30T19:11:07.223Z,12.24
2023-04-30T19:14:10.580Z,12.23
2023-04-30T19:17:14.817Z,12.46
2023-04-30T19:20:18.007Z,12.26
2023-04-30T19:23:20.767Z,12.03
2023-04-30T19:26:22.828Z,11.86
2023-04-30T19:29:29.583Z,12.16
2023-04-30T19:32:33.757Z,11.73
2023-04-30T19:35:36.236Z,11.56
2023-04-30T19:38:39.525Z,12.19
2023-04-30T19:41:41.911Z,12.00
2023-04-30T19:44:44.890Z,11.59
2023-04-30T19:47:49.151Z,11.80
2023-04-30T19:50:54.151Z,11.31
2023-04-30T19:53:59.030Z,11.47
2023-04-30T19:57:02.122Z,11.24
2023-04-30T20:00:04.853Z,11.57
2023-04-30T20:03:10.867Z,11.37
2023-04-30T20:06:13.948Z,11.87
2023-04-30T20:09:16.569Z,11.80
2023-04-30T20:12:19.111Z,11.84
2023-04-30T20:15:22.802Z,11.67
2023-04-30T20:18:26.371Z,12.07
2023-04-30T20:21:29.608Z,11.73
2023-04-30T20:24:32.275Z,11.77
2023-04-30T20:27:34.380Z,11.62
2023-04-30T20:30:36.957Z,11.36
2023-04-30T20:33:41.477Z,11.19
2023-04-30T20:36:43.936Z,11.28
2023-04-30T20:39:46.430Z,11.10
2023-04-30T20:42:48.805Z,11.32
2023-04-30T20:45:50.803Z,11.26
2023-04-30T20:48:57.126Z,11.65
2023-04-30T20:51:59.625Z,11.16
2023-04-30T20:55:01.892Z,11.31
2023-04-30T20:58:04.244Z,11.15
2023-04-30T21:01:07.202Z,11.26
2023-04-30T21:04:10.620Z,11.21
2023-04-30T21:07:12.885Z,11.08
2023-04-30T21:10:14.818Z,11.10
2023-04-30T21:13:17.197Z,11.16
2023-04-30T21:16:19.190Z,11.03
2023-04-30T21:19:23.271Z,11.03
2023-04-30T21:22:25.237Z,10.93
2023-04-30T21:25:27.353Z,10.89
2023-04-30T21:28:29.239Z,11.26
2023-04-30T21:31:31.804Z,10.84
2023-04-30T21:34:35.398Z,10.98
2023-04-30T21:37:37.589Z,10.77
2023-04-30T21:40:40.752Z,10.72
2023-04-30T21:43:43.524Z,10.78
2023-04-30T21:46:45.822Z,11.12
2023-04-30T21:49:49.193Z,11.09
2023-04-30T21:52:51.323Z,11.10
2023-04-30T21:55:53.407Z,11.36
2023-04-30T21:58:55.359Z,10.96
2023-04-30T22:01:58.270Z,10.96
2023-04-30T22:05:02.429Z,10.96
2023-04-30T22:08:05.444Z,11.10
2023-04-30T22:11:07.576Z,11.31
2023-04-30T22:14:09.543Z,11.08
2023-04-30T22:17:12.906Z,10.95
2023-04-30T22:20:16.368Z,11.04
2023-04-30T22:23:18.482Z,10.75
2023-04-30T22:26:22.691Z,10.62
2023-04-30T22:29:26.218Z,11.06
2023-04-30T22:32:28.182Z,10.93
2023-04-30T22:35:32.916Z,10.68
2023-04-30T22:38:35.466Z,10.81
2023-04-30T22:41:37.938Z,10.48
2023-04-30T22:44:40.094Z,10.66
2023-04-30T22:47:45.096Z,10.40
2023-04-30T22:50:48.531Z,10.45
2023-04-30T22:53:50.698Z,10.75
2023-04-30T22:56:52.608Z,10.51
2023-04-30T22:59:54.802Z,10.60
2023-04-30T23:02:56.946Z,10.64
2023-04-30T23:06:00.711Z,10.81
2023-04-30T23:09:02.781Z,11.08
2023-04-30T23:12:05.738Z,11.03
2023-04-30T23:15:08.219Z,10.83
2023-04-30T23:18:10.520Z,10.84
2023-04-30T23:21:13.984Z,10.76
2023-04-30T23:24:15.928Z,10.97
2023-04-30T23:27:17.848Z,10.94
2023-04-30T23:30:19.756Z,10.57
2023-04-30T23:33:21.893Z,10.37
2023-04-30T23:36:25.203Z,10.15
2023-04-30T23:39:27.162Z,10.12
2023-04-30T23:42:29.218Z,10.09
2023-04-30T23:45:31.367Z,10.53
2023-04-30T23:48:34.884Z,10.34
2023-04-30T23:51:38.165Z,10.18
2023-04-30T23:54:40.356Z,10.37
2023-04-30T23:57:42.753Z,10.22
